Airfield :
LOGIN :

Register | Disclaimer

   EN    FR    IT 

 










Legend :    VFR   Marginal VFR   IFR   Intensive IFR   Very Intensive IFR
Visi :
Ceiling :
>= 8 km
>= 3000ft
5 to 8 km
1000 to 3000 ft
1500m to 5 km
500 to 1000 ft
800 to 1500m
200 to 500 ft
< 800m
< 200 ft
Symbols :   Thunderstorms  Fog  Heavy snow  Heavy precipitations  Wind > 20 kt
SIGMETs :     Misc.  Thunderstorms  Icing  Turbulence  Mountain Waves  Volcanic Ashes






- Airport Elevation : 162 ft
- IATA code : BOD


LFBD - Bordeaux / Merignac

CURRENT METAR :
  • 280700Z AUTO 19004KT 9999 FEW032 SCT060 BKN190 09/08 Q1017 TEMPO 3000 SHRA SCT005 BKN025TCU

EXPIRED METARs :
  • 280630Z AUTO 18004KT 9999 FEW030 OVC210 09/08 Q1017 TEMPO 3000 SHRA SCT005 BKN025TCU
  • 280600Z AUTO 28006KT 9999 SCT035/// BKN068/// BKN100/// ///CB 10/09 Q1017 TEMPO 3000 SHRA
  • 280530Z AUTO VRB02KT 9999 -RA SCT030/// SCT041/// BKN054/// ///CB 10/09 Q1017 TEMPO 3000 SHRA
  • 280500Z AUTO 30006KT 240V350 6000 -RA FEW019/// SCT033/// BKN043/// ///CB 10/09 Q1017 TEMPO 3000 SHRA

TAF TAF LFBD
Valid from the 28 at 06:00 until the 29 at 12:00 UTC


280500Z 2806/2912 27005KT 9999 SCT030 TX12/2813Z TN05/2905Z
TEMPO 2806/2902 3000 SHRA SCT005 BKN025TCU
PROB30
TEMPO 2809/2815 29020G35KT 2000 TSRA BKN005 BKN015CB
BECMG 2902/2904 VRB02KT
PROB40 2904/2912 3000 BR
PROB30 2905/2910 0400 FG VV///
ATIS : +33 5 57 92 81 04



MET'MAP, your aeronautical weather chart ! - Copyright ORBIFLY December 2007 - Disclaimer

ORBIFLY MET'MAP TEAM :

Programming & Development : Alexandra Zaïnal
Original concept : Baudouin d'Aumeries
Technical & hardware support : Manuel Goepfert
Assistance : Marc-Olivier Méhu




SOURCES & CREDITS :

   NOAA